Time;durP1;ratioP1;P1;durP2;ratioP2;P2;SDS_P1;SDS_P2;PMS_P1;PMS_P2;Temp;Humidity;BMP_temperature;BMP_pressure;BME280_temperature;BME280_humidity;BME280_pressure;Samples;Min_cycle;Max_cycle;Signal;HPM_P1;HPM_P2
2022/02/01 00:01:48;;;;;;;2.10;1.50;;;5.40;99.90;;;;;;5064828;28;20240;-57
2022/02/01 00:04:22;;;;;;;1.80;1.52;;;5.50;99.90;;;;;;5071525;28;20242;-57
2022/02/01 00:07:08;;;;;;;1.50;1.40;;;5.60;99.90;;;;;;5065174;28;20249;-58
2022/02/01 00:09:47;;;;;;;2.35;1.40;;;5.40;99.90;;;;;;5064724;28;20212;-57
2022/02/01 00:13:08;;;;;;;1.55;1.45;;;5.50;99.90;;;;;;5059240;28;20628;-57
2022/02/01 00:15:21;;;;;;;2.08;1.40;;;5.40;99.90;;;;;;5061565;28;20222;-57
2022/02/01 00:20:49;;;;;;;3.30;1.42;;;5.50;99.90;;;;;;5064810;28;20228;-57
2022/02/01 00:34:27;;;;;;;5.30;2.53;;;5.40;99.90;;;;;;5068829;28;20231;-56
2022/02/01 00:36:59;;;;;;;1.50;1.40;;;5.20;99.90;;;;;;5066445;28;20179;-55
2022/02/01 00:39:31;;;;;;;1.77;1.40;;;5.30;99.90;;;;;;5065867;28;20196;-57
2022/02/01 00:41:57;;;;;;;2.17;1.42;;;5.20;99.90;;;;;;5052895;28;20199;-56
2022/02/01 00:44:24;;;;;;;1.40;1.30;;;5.00;99.90;;;;;;5060245;28;20218;-56
2022/02/01 00:46:50;;;;;;;1.33;1.23;;;5.60;99.90;;;;;;5061048;28;20189;-55
2022/02/01 00:49:16;;;;;;;3.05;1.50;;;5.20;99.90;;;;;;5067012;28;20209;-56
2022/02/01 00:51:42;;;;;;;1.75;1.23;;;5.30;99.90;;;;;;5067888;28;20742;-56
2022/02/01 00:54:08;;;;;;;1.40;1.30;;;5.10;99.90;;;;;;5068070;28;20264;-57
2022/02/01 00:56:33;;;;;;;2.30;1.27;;;5.20;99.90;;;;;;5060742;28;20802;-57
2022/02/01 00:58:59;;;;;;;1.53;1.27;;;5.20;99.90;;;;;;5071221;28;20601;-57
2022/02/01 01:01:25;;;;;;;1.77;1.43;;;4.80;99.90;;;;;;5064051;28;20183;-56
2022/02/01 01:03:50;;;;;;;2.27;1.27;;;5.10;99.90;;;;;;5056227;28;20202;-56
2022/02/01 01:06:16;;;;;;;3.33;1.80;;;5.10;99.90;;;;;;5066882;28;20193;-57
2022/02/01 01:08:42;;;;;;;3.73;1.30;;;5.10;99.90;;;;;;5070017;28;20189;-55
2022/02/01 01:11:10;;;;;;;2.28;1.60;;;4.90;99.90;;;;;;5070521;28;20499;-57
2022/02/01 01:54:00;;;;;;;3.35;2.05;;;5.10;99.90;;;;;;5063421;28;20260;-57
2022/02/01 01:56:26;;;;;;;3.30;1.80;;;5.20;99.90;;;;;;5064706;28;20282;-56
2022/02/01 01:58:52;;;;;;;3.20;1.50;;;5.00;99.90;;;;;;5063831;28;20269;-56
2022/02/01 02:01:17;;;;;;;3.77;1.83;;;5.20;99.90;;;;;;5064792;28;20179;-56
2022/02/01 02:03:48;;;;;;;2.10;1.47;;;5.00;99.90;;;;;;5055159;28;20633;-56
2022/02/01 02:06:16;;;;;;;8.55;1.77;;;5.30;99.90;;;;;;5064351;28;20195;-57
2022/02/01 02:08:45;;;;;;;5.00;1.80;;;5.10;99.90;;;;;;5063949;28;20190;-57
2022/02/01 02:11:18;;;;;;;3.47;1.90;;;5.20;99.90;;;;;;5070565;28;20209;-55
2022/02/01 02:16:38;;;;;;;2.65;1.45;;;5.10;99.90;;;;;;5058773;28;20282;-55
2022/02/01 02:19:05;;;;;;;3.42;1.63;;;5.20;99.90;;;;;;5059233;28;20173;-56
2022/02/01 02:21:31;;;;;;;3.30;1.60;;;4.50;99.90;;;;;;5070225;28;20189;-57
2022/02/01 02:23:56;;;;;;;4.70;1.87;;;5.00;99.90;;;;;;5066589;28;20202;-55
2022/02/01 02:26:22;;;;;;;2.67;1.70;;;5.10;99.90;;;;;;5066010;28;20193;-57
2022/02/01 02:28:48;;;;;;;2.80;1.80;;;5.20;99.90;;;;;;5057595;28;20217;-57
2022/02/01 02:31:14;;;;;;;4.28;1.65;;;4.90;99.90;;;;;;5062100;28;20293;-56
2022/02/01 02:33:40;;;;;;;6.30;1.85;;;4.80;99.90;;;;;;5059987;28;20681;-56
2022/02/01 02:36:19;;;;;;;4.10;1.90;;;5.00;99.90;;;;;;5070326;28;20265;-57
2022/02/01 02:41:35;;;;;;;4.53;2.90;;;4.80;99.90;;;;;;5060807;28;20247;-57
2022/02/01 02:46:53;;;;;;;5.40;2.13;;;5.00;99.90;;;;;;5054817;28;20268;-58
2022/02/01 02:49:21;;;;;;;5.60;2.47;;;5.00;99.90;;;;;;5065531;28;20327;-57
2022/02/01 02:51:47;;;;;;;11.35;2.55;;;5.10;99.90;;;;;;5061672;28;20211;-56
2022/02/01 02:54:22;;;;;;;7.37;2.40;;;4.40;99.90;;;;;;5059944;28;20702;-56
2022/02/01 02:56:52;;;;;;;8.00;2.33;;;5.00;99.90;;;;;;5059898;28;20463;-57
2022/02/01 02:59:20;;;;;;;2.70;1.60;;;4.90;99.90;;;;;;5059451;28;20265;-56
2022/02/01 03:01:47;;;;;;;8.85;2.20;;;5.00;99.90;;;;;;5063333;28;20189;-55
2022/02/01 03:04:17;;;;;;;10.05;2.67;;;4.90;99.90;;;;;;5064713;28;20690;-57
2022/02/01 03:06:43;;;;;;;7.20;1.90;;;4.80;99.90;;;;;;5060969;28;20188;-57
2022/02/01 03:09:10;;;;;;;4.37;2.60;;;5.10;99.90;;;;;;5071982;28;20636;-56
2022/02/01 03:11:37;;;;;;;6.28;2.13;;;4.90;99.90;;;;;;5061784;28;20501;-56
2022/02/01 03:14:06;;;;;;;8.07;2.60;;;4.90;99.90;;;;;;5059407;28;20304;-57
2022/02/01 03:22:00;;;;;;;6.72;2.05;;;5.10;99.90;;;;;;5063988;28;20204;-57
2022/02/01 03:24:26;;;;;;;5.40;2.10;;;5.00;99.90;;;;;;5063439;28;20690;-57
2022/02/01 03:26:51;;;;;;;7.83;2.60;;;5.10;99.90;;;;;;5059121;28;20441;-57
2022/02/01 03:29:17;;;;;;;5.93;2.27;;;5.30;99.90;;;;;;5062290;28;20656;-56
2022/02/01 03:31:43;;;;;;;5.47;2.07;;;4.50;99.90;;;;;;5060623;28;20220;-57
2022/02/01 03:34:08;;;;;;;5.30;2.07;;;5.20;99.90;;;;;;5068429;28;20266;-58
2022/02/01 03:36:34;;;;;;;8.10;2.70;;;4.60;99.90;;;;;;5065332;28;20178;-58
2022/02/01 03:39:00;;;;;;;8.10;2.57;;;5.00;99.90;;;;;;5067464;28;20185;-57
2022/02/01 03:41:27;;;;;;;6.55;2.17;;;5.30;99.90;;;;;;5060714;28;20212;-57
2022/02/01 03:43:52;;;;;;;4.97;2.50;;;5.00;99.90;;;;;;5071843;28;20226;-56
2022/02/01 03:46:19;;;;;;;7.30;2.40;;;5.30;99.90;;;;;;5063973;28;20235;-56
2022/02/01 03:48:45;;;;;;;9.27;2.67;;;4.90;99.90;;;;;;5064959;28;20481;-57
2022/02/01 03:51:11;;;;;;;9.90;2.43;;;5.00;99.90;;;;;;5066197;28;20713;-56
2022/02/01 03:53:36;;;;;;;5.00;2.30;;;4.90;99.90;;;;;;5060464;28;20206;-56
2022/02/01 03:56:03;;;;;;;5.80;2.10;;;4.90;99.90;;;;;;5073611;28;20186;-57
2022/02/01 03:58:29;;;;;;;8.25;2.17;;;5.10;99.90;;;;;;5048359;28;20243;-56
2022/02/01 04:00:54;;;;;;;6.67;2.27;;;5.00;99.90;;;;;;5058439;28;20713;-56
2022/02/01 04:03:20;;;;;;;4.90;1.80;;;5.20;99.90;;;;;;5060531;28;20613;-56
2022/02/01 04:05:46;;;;;;;6.13;1.97;;;5.30;99.90;;;;;;5073946;28;20243;-56
2022/02/01 04:08:13;;;;;;;5.77;2.00;;;5.00;99.90;;;;;;5063725;28;20188;-57
2022/02/01 04:10:39;;;;;;;7.43;2.70;;;4.90;99.90;;;;;;5066105;28;20183;-57
2022/02/01 04:13:05;;;;;;;7.13;2.40;;;5.00;99.90;;;;;;5068478;28;20193;-56
2022/02/01 04:15:31;;;;;;;6.05;1.98;;;5.00;99.90;;;;;;5066680;28;20191;-56
2022/02/01 04:17:57;;;;;;;10.77;2.67;;;5.20;99.90;;;;;;5056926;28;20173;-58
2022/02/01 04:20:23;;;;;;;6.80;2.35;;;5.00;99.90;;;;;;5067392;28;20200;-56
2022/02/01 04:22:49;;;;;;;3.92;1.88;;;5.40;99.90;;;;;;5064331;28;20190;-56
2022/02/01 04:25:15;;;;;;;5.50;1.63;;;4.70;99.90;;;;;;5069582;28;20203;-56
2022/02/01 04:27:42;;;;;;;7.93;2.50;;;5.00;99.90;;;;;;5068372;28;20450;-58
2022/02/01 04:30:16;;;;;;;4.80;1.42;;;5.10;99.90;;;;;;5060924;28;20186;-56
2022/02/01 04:32:44;;;;;;;4.75;2.70;;;5.10;99.90;;;;;;5060371;28;20310;-56
2022/02/01 04:35:12;;;;;;;5.45;2.08;;;5.40;99.90;;;;;;5065918;28;20289;-57
2022/02/01 04:37:39;;;;;;;6.05;2.10;;;4.90;99.90;;;;;;5065335;28;20504;-56
2022/02/01 04:40:06;;;;;;;4.45;2.42;;;5.30;99.90;;;;;;5061401;28;20662;-55
2022/02/01 04:42:35;;;;;;;5.68;2.28;;;5.00;99.90;;;;;;5065283;28;20210;-57
2022/02/01 04:45:02;;;;;;;6.15;1.83;;;4.50;99.90;;;;;;5069254;28;20199;-58
2022/02/01 04:47:31;;;;;;;6.60;2.35;;;5.00;99.90;;;;;;5056995;28;20280;-58
2022/02/01 04:49:58;;;;;;;5.40;2.10;;;4.90;99.90;;;;;;5066730;28;20190;-56
2022/02/01 04:52:23;;;;;;;4.78;1.95;;;5.00;99.90;;;;;;5071941;28;20245;-57
2022/02/01 04:54:49;;;;;;;6.60;2.33;;;5.10;99.90;;;;;;5057911;28;20640;-57
2022/02/01 04:57:15;;;;;;;5.80;2.20;;;5.00;99.90;;;;;;5048956;28;20663;-56
2022/02/01 04:59:41;;;;;;;3.90;2.33;;;5.10;99.90;;;;;;5067025;28;20420;-57
2022/02/01 05:02:06;;;;;;;6.37;1.70;;;5.20;99.90;;;;;;5061388;28;20194;-56
2022/02/01 05:04:32;;;;;;;3.67;1.40;;;5.20;99.90;;;;;;5067172;28;20204;-57
2022/02/01 05:06:57;;;;;;;10.37;2.50;;;5.10;99.90;;;;;;5064741;28;20192;-56
2022/02/01 05:09:24;;;;;;;6.30;2.10;;;5.30;99.90;;;;;;5063882;28;20188;-57
2022/02/01 05:11:52;;;;;;;10.85;2.78;;;5.00;99.90;;;;;;5064016;28;20217;-57
2022/02/01 05:14:26;;;;;;;8.50;2.30;;;4.70;99.90;;;;;;5068891;28;20217;-57
2022/02/01 05:19:31;;;;;;;11.03;4.43;;;5.00;99.90;;;;;;5073557;28;20197;-56
2022/02/01 05:22:02;;;;;;;4.53;2.33;;;5.20;99.90;;;;;;5059365;28;20451;-57
2022/02/01 05:24:27;;;;;;;5.28;2.65;;;4.50;99.90;;;;;;5062034;28;20894;-56
2022/02/01 05:26:57;;;;;;;3.63;1.60;;;5.00;99.90;;;;;;5058265;28;20183;-57
2022/02/01 05:29:23;;;;;;;5.97;2.05;;;4.40;99.90;;;;;;5064245;28;20181;-56
2022/02/01 05:31:51;;;;;;;11.48;2.50;;;4.80;99.90;;;;;;5056477;28;20711;-56
2022/02/01 05:34:20;;;;;;;5.85;2.22;;;5.00;99.90;;;;;;5055925;28;20308;-57
2022/02/01 05:36:46;;;;;;;10.90;2.85;;;4.70;99.90;;;;;;5063316;28;20624;-57
2022/02/01 05:39:17;;;;;;;10.50;2.50;;;4.90;99.90;;;;;;5060396;28;20211;-56
2022/02/01 05:41:43;;;;;;;5.13;2.05;;;5.00;99.90;;;;;;5060364;28;20197;-56
2022/02/01 05:44:09;;;;;;;5.10;2.05;;;5.10;99.90;;;;;;5053511;28;20214;-58
2022/02/01 05:46:37;;;;;;;7.47;2.33;;;5.00;99.90;;;;;;5059288;28;20196;-56
2022/02/01 05:49:04;;;;;;;6.07;2.78;;;4.20;99.90;;;;;;5057496;28;20448;-57
2022/02/01 05:51:30;;;;;;;5.47;2.30;;;5.20;99.90;;;;;;5069046;28;20202;-56
2022/02/01 05:53:56;;;;;;;6.85;2.50;;;4.90;99.90;;;;;;5060089;28;20208;-57
2022/02/01 05:56:22;;;;;;;8.57;2.30;;;4.50;99.90;;;;;;5062060;28;20189;-56
2022/02/01 05:58:47;;;;;;;6.10;2.20;;;4.30;99.90;;;;;;5049031;28;20264;-55
2022/02/01 06:01:13;;;;;;;8.50;1.90;;;4.70;99.90;;;;;;5059080;28;20182;-56
2022/02/01 06:03:39;;;;;;;4.37;2.20;;;4.50;99.90;;;;;;5055479;28;20206;-55
2022/02/01 06:06:04;;;;;;;6.90;2.60;;;4.60;99.90;;;;;;5062822;28;20436;-56
2022/02/01 06:08:30;;;;;;;5.53;1.97;;;4.80;99.90;;;;;;5058448;28;20191;-57
2022/02/01 06:10:56;;;;;;;10.13;2.37;;;4.80;99.90;;;;;;5057250;28;20753;-56
2022/02/01 06:13:22;;;;;;;7.77;3.50;;;4.20;99.90;;;;;;5065473;28;20214;-56
2022/02/01 06:15:47;;;;;;;8.53;2.87;;;4.60;99.90;;;;;;5074403;28;20423;-55
2022/02/01 06:18:14;;;;;;;8.33;2.93;;;4.60;99.90;;;;;;5057638;28;20488;-54
2022/02/01 06:20:39;;;;;;;7.57;1.80;;;3.90;99.90;;;;;;5051635;28;20189;-56
2022/02/01 06:23:13;;;;;;;6.87;2.60;;;4.20;99.90;;;;;;5062787;28;20186;-55
2022/02/01 06:25:47;;;;;;;7.40;3.47;;;4.60;99.90;;;;;;5067607;28;20189;-56
2022/02/01 06:28:13;;;;;;;4.28;2.50;;;4.50;99.90;;;;;;5060379;28;20178;-56
2022/02/01 06:30:39;;;;;;;9.73;2.40;;;4.60;99.90;;;;;;5062607;28;20209;-56
2022/02/01 06:33:04;;;;;;;7.63;2.65;;;4.60;99.90;;;;;;5059496;28;20193;-56
2022/02/01 06:35:30;;;;;;;7.13;2.93;;;4.80;99.90;;;;;;5067474;28;20647;-57
2022/02/01 06:37:56;;;;;;;5.75;2.10;;;4.60;99.90;;;;;;5068067;28;20185;-57
2022/02/01 06:40:22;;;;;;;11.83;3.07;;;4.50;99.90;;;;;;5061592;28;20527;-58
2022/02/01 06:42:47;;;;;;;7.07;2.20;;;4.50;99.90;;;;;;5059047;28;20516;-57
2022/02/01 06:45:13;;;;;;;6.40;2.40;;;4.30;99.90;;;;;;5068128;28;20697;-57
2022/02/01 06:47:39;;;;;;;5.17;2.00;;;3.80;99.90;;;;;;5054701;28;20697;-56
2022/02/01 06:50:05;;;;;;;7.80;2.60;;;4.40;99.90;;;;;;5065192;28;20480;-57
2022/02/01 06:52:32;;;;;;;4.68;1.95;;;4.40;99.90;;;;;;5059129;28;20222;-56
2022/02/01 06:55:02;;;;;;;7.70;2.47;;;4.70;99.90;;;;;;5064653;28;20202;-57
2022/02/01 06:57:35;;;;;;;5.93;2.70;;;4.50;99.90;;;;;;5062518;28;20650;-56
2022/02/01 07:00:00;;;;;;;5.38;2.38;;;4.50;99.90;;;;;;5066675;28;20220;-57
2022/02/01 07:02:26;;;;;;;8.83;2.50;;;4.40;99.90;;;;;;5055795;28;20673;-57
2022/02/01 07:04:51;;;;;;;7.97;2.33;;;4.70;99.90;;;;;;5058731;28;20305;-57
2022/02/01 07:07:17;;;;;;;11.97;2.73;;;4.20;99.90;;;;;;5064468;28;20266;-59
2022/02/01 07:09:42;;;;;;;4.47;2.33;;;4.40;99.90;;;;;;5065938;28;20194;-58
2022/02/01 07:12:09;;;;;;;10.10;2.67;;;4.40;99.90;;;;;;5051139;28;20228;-58
2022/02/01 07:14:34;;;;;;;8.13;2.47;;;4.50;99.90;;;;;;5063361;28;20208;-56
2022/02/01 07:17:00;;;;;;;4.03;2.20;;;4.40;99.90;;;;;;5062699;28;20187;-59
2022/02/01 07:19:25;;;;;;;5.40;2.00;;;4.40;99.90;;;;;;5067710;28;20519;-57
2022/02/01 07:21:51;;;;;;;7.60;2.30;;;4.30;99.90;;;;;;5061862;28;20222;-57
2022/02/01 07:24:26;;;;;;;5.37;2.60;;;4.60;99.90;;;;;;5065504;28;20621;-57
2022/02/01 07:26:56;;;;;;;11.90;2.50;;;4.40;99.90;;;;;;5070577;28;20200;-60
2022/02/01 07:29:22;;;;;;;6.78;2.85;;;4.40;99.90;;;;;;5070202;28;20188;-57
2022/02/01 07:31:48;;;;;;;6.93;2.30;;;4.20;99.90;;;;;;5063383;28;20205;-56
2022/02/01 07:34:15;;;;;;;6.55;2.40;;;4.20;99.90;;;;;;5067364;28;20249;-58
2022/02/01 07:36:44;;;;;;;4.60;2.03;;;4.50;99.90;;;;;;5067461;28;20607;-57
2022/02/01 07:39:11;;;;;;;5.18;2.50;;;4.60;99.90;;;;;;5062210;28;20610;-56
2022/02/01 07:41:38;;;;;;;7.28;2.65;;;4.50;99.90;;;;;;5055719;28;20314;-56
2022/02/01 07:44:04;;;;;;;6.70;2.42;;;4.40;99.90;;;;;;5072014;28;20228;-58
2022/02/01 07:46:30;;;;;;;7.65;2.20;;;4.50;99.90;;;;;;5060930;28;20191;-57
2022/02/01 07:48:56;;;;;;;9.63;2.22;;;4.40;99.90;;;;;;5062600;28;20186;-57
2022/02/01 07:51:22;;;;;;;7.73;2.83;;;4.50;99.90;;;;;;5068028;28;20729;-58
2022/02/01 07:53:47;;;;;;;5.40;2.33;;;4.70;99.90;;;;;;5070275;28;20204;-58
2022/02/01 07:56:13;;;;;;;3.83;2.00;;;4.90;99.90;;;;;;5060321;28;20243;-59
2022/02/01 07:58:39;;;;;;;3.60;1.80;;;4.70;99.90;;;;;;5072103;28;20570;-57
2022/02/01 08:01:05;;;;;;;9.43;2.15;;;5.30;99.90;;;;;;5058422;28;20186;-59
2022/02/01 08:03:31;;;;;;;8.20;2.10;;;4.80;99.90;;;;;;5064064;28;20210;-59
2022/02/01 08:05:56;;;;;;;4.50;1.80;;;5.30;99.90;;;;;;5068774;28;20470;-59
2022/02/01 08:08:22;;;;;;;7.10;2.10;;;5.20;99.90;;;;;;5063060;28;20295;-58
2022/02/01 08:10:51;;;;;;;5.63;2.10;;;5.10;99.90;;;;;;5063876;28;20214;-58
2022/02/01 08:16:32;;;;;;;4.43;2.20;;;5.30;99.90;;;;;;5070910;28;20187;-58
2022/02/01 08:19:06;;;;;;;6.50;2.45;;;5.30;99.90;;;;;;5064803;28;20237;-59
2022/02/01 08:21:41;;;;;;;3.70;1.95;;;5.60;99.60;;;;;;5063133;28;20594;-59
2022/02/01 08:24:07;;;;;;;4.00;2.28;;;5.50;99.20;;;;;;5062126;28;20289;-57
2022/02/01 08:26:33;;;;;;;5.23;2.13;;;5.40;99.10;;;;;;5061664;28;20609;-59
2022/02/01 08:28:59;;;;;;;4.30;2.40;;;5.30;99.30;;;;;;5068869;28;20223;-59
2022/02/01 08:31:24;;;;;;;4.40;2.33;;;5.70;99.50;;;;;;5070101;28;20636;-58
2022/02/01 08:33:50;;;;;;;4.43;2.00;;;5.60;99.60;;;;;;5068097;28;20227;-58
2022/02/01 08:36:16;;;;;;;5.90;2.47;;;5.50;99.90;;;;;;5067231;28;20260;-57
2022/02/01 08:38:41;;;;;;;5.97;2.00;;;5.40;99.90;;;;;;5061095;28;20200;-58
2022/02/01 08:41:07;;;;;;;8.73;4.40;;;5.50;99.40;;;;;;5056475;28;20187;-58
2022/02/01 08:43:32;;;;;;;3.03;1.70;;;5.20;99.80;;;;;;5065068;28;20285;-57
2022/02/01 08:45:58;;;;;;;7.73;2.50;;;5.60;99.90;;;;;;5066461;28;20189;-57
2022/02/01 08:48:24;;;;;;;5.23;2.30;;;5.60;99.90;;;;;;5057194;28;20555;-58
2022/02/01 08:50:50;;;;;;;4.20;2.40;;;5.90;99.90;;;;;;5064363;28;20197;-59
2022/02/01 08:58:26;;;;;;;3.38;1.90;;;6.00;99.90;;;;;;5059102;28;20198;-58
2022/02/01 09:00:54;;;;;;;4.40;2.50;;;6.10;99.90;;;;;;5057748;28;20265;-57
2022/02/01 09:03:19;;;;;;;4.88;2.45;;;6.20;99.60;;;;;;5059911;28;20583;-57
2022/02/01 09:05:48;;;;;;;4.93;2.07;;;6.20;99.70;;;;;;5055087;28;20186;-56
2022/02/01 09:08:14;;;;;;;4.63;2.10;;;5.60;99.20;;;;;;5057269;28;20521;-57
2022/02/01 09:10:40;;;;;;;2.90;1.90;;;6.00;99.30;;;;;;5060809;28;20656;-56
2022/02/01 09:13:05;;;;;;;6.30;2.57;;;5.60;99.40;;;;;;5061393;28;20212;-56
2022/02/01 09:15:31;;;;;;;4.00;2.10;;;5.90;99.70;;;;;;5059862;28;20355;-57
2022/02/01 09:17:58;;;;;;;4.73;3.40;;;6.20;99.00;;;;;;5057279;28;20189;-57
2022/02/01 09:20:25;;;;;;;7.15;2.33;;;6.40;99.50;;;;;;5060718;28;20662;-58
2022/02/01 09:22:51;;;;;;;6.15;2.40;;;6.70;98.60;;;;;;5072005;28;20550;-57
2022/02/01 09:25:18;;;;;;;7.77;2.53;;;7.10;98.50;;;;;;5065596;28;20307;-58
2022/02/01 09:27:44;;;;;;;5.78;3.03;;;6.50;98.10;;;;;;5046845;28;20653;-56
2022/02/01 09:30:12;;;;;;;8.25;2.10;;;6.60;98.30;;;;;;5053403;28;20212;-58
2022/02/01 09:32:37;;;;;;;4.30;2.10;;;6.30;98.50;;;;;;5057833;28;20215;-58
2022/02/01 09:35:03;;;;;;;7.30;2.20;;;6.40;99.00;;;;;;5058394;28;20209;-57
2022/02/01 09:37:29;;;;;;;3.90;2.92;;;6.30;98.70;;;;;;5066332;28;20241;-56
2022/02/01 09:39:55;;;;;;;7.05;2.28;;;6.60;98.50;;;;;;5057436;28;20189;-57
2022/02/01 09:42:24;;;;;;;7.00;2.10;;;6.40;98.60;;;;;;5057272;28;20191;-57
2022/02/01 09:44:52;;;;;;;6.57;1.77;;;6.50;98.80;;;;;;5061103;28;20215;-57
2022/02/01 09:47:17;;;;;;;5.75;2.28;;;6.60;98.90;;;;;;5062888;28;20177;-56
2022/02/01 09:49:45;;;;;;;5.93;3.60;;;6.40;98.70;;;;;;5059152;28;20197;-57
2022/02/01 09:52:11;;;;;;;4.00;1.65;;;6.80;98.30;;;;;;5059355;28;20198;-56
2022/02/01 09:54:38;;;;;;;6.30;2.77;;;6.80;98.10;;;;;;5056723;28;20635;-60
2022/02/01 09:57:07;;;;;;;1.75;1.42;;;6.60;98.50;;;;;;5064663;28;20193;-60
2022/02/01 09:59:35;;;;;;;12.30;6.50;;;6.30;98.10;;;;;;5048220;28;20753;-57
2022/02/01 10:02:09;;;;;;;3.53;2.15;;;6.60;98.50;;;;;;5056224;28;20276;-58
2022/02/01 10:04:35;;;;;;;6.78;1.90;;;6.80;98.30;;;;;;5065624;28;20574;-59
2022/02/01 10:07:05;;;;;;;3.35;1.75;;;6.20;98.00;;;;;;5061247;28;20180;-59
2022/02/01 10:09:30;;;;;;;5.22;2.50;;;6.50;98.00;;;;;;5066808;28;20206;-59
2022/02/01 10:11:56;;;;;;;3.50;1.77;;;6.80;97.80;;;;;;5056801;28;20212;-59
2022/02/01 10:14:29;;;;;;;2.75;1.80;;;7.10;97.50;;;;;;5068259;28;20307;-58
2022/02/01 10:16:58;;;;;;;2.65;1.70;;;6.50;96.80;;;;;;5053871;28;20203;-59
2022/02/01 10:19:23;;;;;;;4.10;2.05;;;6.80;97.20;;;;;;5053816;28;20185;-58
2022/02/01 10:21:50;;;;;;;4.40;1.90;;;7.20;97.40;;;;;;5060197;28;20283;-59
2022/02/01 10:24:31;;;;;;;6.13;1.70;;;7.30;97.20;;;;;;5064899;28;20585;-59
2022/02/01 10:27:07;;;;;;;4.18;2.92;;;7.10;96.90;;;;;;5056068;28;20868;-59
2022/02/01 10:29:34;;;;;;;3.22;1.85;;;7.30;96.90;;;;;;5056827;28;20607;-59
2022/02/01 10:32:18;;;;;;;6.50;2.88;;;7.50;96.70;;;;;;5052591;28;20309;-60
2022/02/01 10:34:46;;;;;;;6.28;3.30;;;7.40;96.30;;;;;;5048177;28;20201;-57
2022/02/01 10:37:18;;;;;;;4.45;2.47;;;7.50;96.40;;;;;;5062639;28;20235;-59
2022/02/01 10:39:45;;;;;;;4.05;2.40;;;7.40;96.20;;;;;;5061816;28;20178;-59
2022/02/01 10:42:14;;;;;;;3.60;2.05;;;7.40;96.80;;;;;;5062169;28;20201;-61
2022/02/01 10:44:41;;;;;;;4.43;1.70;;;7.40;96.70;;;;;;5068106;28;20228;-60
2022/02/01 10:47:08;;;;;;;4.70;1.83;;;7.30;96.80;;;;;;5060272;28;20382;-60
2022/02/01 10:49:35;;;;;;;5.95;2.05;;;6.90;96.50;;;;;;5064336;28;20217;-60
2022/02/01 10:52:06;;;;;;;9.18;2.30;;;7.00;96.80;;;;;;5061916;28;20654;-60
2022/02/01 10:54:34;;;;;;;3.80;1.55;;;6.80;96.50;;;;;;5066936;28;20581;-60
2022/02/01 10:57:02;;;;;;;1.40;1.30;;;7.00;96.50;;;;;;5056748;28;20193;-60
2022/02/01 10:59:27;;;;;;;5.93;1.30;;;6.70;96.50;;;;;;5064257;28;20184;-59
2022/02/01 11:01:55;;;;;;;5.50;2.17;;;6.60;96.80;;;;;;5060890;28;20718;-59
2022/02/01 11:04:21;;;;;;;2.75;1.50;;;6.90;96.80;;;;;;5074518;28;20211;-60
2022/02/01 11:06:51;;;;;;;4.83;1.50;;;6.90;97.10;;;;;;5062321;28;20205;-59
2022/02/01 11:09:29;;;;;;;5.22;1.50;;;6.80;96.50;;;;;;5059233;28;20463;-60
2022/02/01 11:12:05;;;;;;;6.03;2.33;;;6.80;96.70;;;;;;5063056;28;20193;-60
2022/02/01 11:14:47;;;;;;;4.35;1.77;;;6.70;96.70;;;;;;5068283;28;20216;-60
2022/02/01 11:17:15;;;;;;;2.40;1.65;;;6.40;96.10;;;;;;5059256;28;20185;-59
2022/02/01 11:19:58;;;;;;;5.88;1.83;;;6.90;96.60;;;;;;5059547;28;20193;-59
2022/02/01 11:22:32;;;;;;;6.82;1.90;;;6.90;95.90;;;;;;5070277;28;20889;-60
2022/02/01 11:25:15;;;;;;;4.28;1.90;;;6.90;96.00;;;;;;5077053;28;20241;-60
2022/02/01 11:27:47;;;;;;;3.65;1.88;;;6.90;96.20;;;;;;5059475;28;20629;-56
2022/02/01 11:30:13;;;;;;;3.85;1.85;;;7.00;95.80;;;;;;5071421;28;20196;-59
2022/02/01 11:32:48;;;;;;;3.53;1.45;;;6.80;95.60;;;;;;5054524;28;20568;-59
2022/02/01 11:35:20;;;;;;;4.57;1.90;;;6.70;95.40;;;;;;5059975;28;20542;-61
2022/02/01 11:38:02;;;;;;;2.15;1.42;;;6.70;95.60;;;;;;5066863;28;20173;-60
2022/02/01 11:40:35;;;;;;;5.43;1.70;;;6.80;95.60;;;;;;5062873;28;20249;-63
2022/02/01 11:43:06;;;;;;;5.03;1.60;;;6.90;96.00;;;;;;5059694;28;20288;-63
2022/02/01 11:45:41;;;;;;;3.05;2.10;;;6.60;96.20;;;;;;5065046;28;20564;-62
2022/02/01 11:48:18;;;;;;;5.53;2.03;;;6.20;96.40;;;;;;5058561;28;20180;-68
2022/02/01 11:50:45;;;;;;;4.03;1.50;;;7.00;96.90;;;;;;5070795;28;20200;-63
2022/02/01 11:53:22;;;;;;;1.60;1.50;;;6.80;97.20;;;;;;5069572;28;20311;-61
2022/02/01 11:55:49;;;;;;;1.85;1.50;;;6.70;97.30;;;;;;5061558;28;20714;-62
2022/02/01 11:58:30;;;;;;;5.38;1.88;;;6.50;98.10;;;;;;5051515;28;20177;-57
2022/02/01 12:00:57;;;;;;;3.83;1.60;;;6.60;98.40;;;;;;5064160;28;20188;-57
2022/02/01 12:03:31;;;;;;;6.13;2.42;;;6.00;98.10;;;;;;5061363;28;20200;-61
2022/02/01 12:06:06;;;;;;;5.45;2.10;;;6.50;99.10;;;;;;5064186;28;20188;-61
2022/02/01 12:08:36;;;;;;;9.52;1.95;;;6.20;98.70;;;;;;5061088;28;20225;-61
2022/02/01 12:11:03;;;;;;;4.18;1.55;;;6.00;98.80;;;;;;5062930;28;20575;-63
2022/02/01 12:13:32;;;;;;;2.15;1.40;;;5.80;98.20;;;;;;5058621;28;20208;-62
2022/02/01 12:15:59;;;;;;;2.50;1.50;;;5.90;98.30;;;;;;5070047;28;20675;-64
2022/02/01 12:18:34;;;;;;;1.75;1.33;;;5.40;98.00;;;;;;5057855;28;20598;-66
2022/02/01 12:21:32;;;;;;;3.33;1.48;;;6.00;98.80;;;;;;5066926;28;20207;-58
2022/02/01 12:24:00;;;;;;;2.78;1.50;;;6.00;98.40;;;;;;5068409;28;20766;-59
2022/02/01 12:26:36;;;;;;;5.57;1.30;;;6.00;98.90;;;;;;5059642;28;20307;-60
2022/02/01 12:29:06;;;;;;;3.38;1.55;;;6.10;99.10;;;;;;5066818;28;20177;-60
2022/02/01 12:31:34;;;;;;;3.90;1.33;;;6.10;98.90;;;;;;5069334;28;20212;-59
2022/02/01 12:34:02;;;;;;;2.75;1.30;;;6.00;99.10;;;;;;5060012;28;20624;-59
2022/02/01 12:36:36;;;;;;;5.40;1.75;;;5.90;98.70;;;;;;5059954;28;20206;-59
2022/02/01 12:39:14;;;;;;;3.05;1.60;;;6.00;98.80;;;;;;5064414;28;20206;-60
2022/02/01 12:42:05;;;;;;;3.20;1.80;;;5.80;99.20;;;;;;5055569;28;20183;-58
2022/02/01 12:47:26;;;;;;;3.25;1.60;;;5.90;98.80;;;;;;5064585;28;20216;-61
2022/02/01 12:49:53;;;;;;;2.03;1.40;;;6.20;98.50;;;;;;5061909;28;20283;-60
2022/02/01 12:52:29;;;;;;;2.22;1.38;;;6.00;98.50;;;;;;5057574;28;20203;-59
2022/02/01 12:55:06;;;;;;;4.28;1.70;;;6.00;98.50;;;;;;5066668;28;20290;-58
2022/02/01 12:57:34;;;;;;;2.38;1.63;;;5.90;98.80;;;;;;5063017;28;20214;-58
2022/02/01 13:00:09;;;;;;;2.42;1.25;;;6.20;99.00;;;;;;5065188;28;20651;-59
2022/02/01 13:02:35;;;;;;;5.32;2.10;;;6.20;98.80;;;;;;5061732;28;20689;-58
2022/02/01 13:05:07;;;;;;;2.10;1.10;;;5.90;98.70;;;;;;5080802;28;20287;-58
2022/02/01 13:07:51;;;;;;;1.70;1.13;;;6.10;98.70;;;;;;5072561;28;20269;-58
2022/02/01 13:16:17;;;;;;;2.95;1.40;;;6.30;98.30;;;;;;5066173;28;20201;-59
2022/02/01 13:21:23;;;;;;;3.60;1.13;;;6.10;98.50;;;;;;5061870;28;20169;-60
2022/02/01 13:23:56;;;;;;;3.25;1.30;;;6.20;98.40;;;;;;5064365;28;20287;-58
2022/02/01 13:26:28;;;;;;;1.88;1.13;;;6.10;98.40;;;;;;5056769;28;20217;-57
2022/02/01 13:29:05;;;;;;;3.22;1.58;;;6.40;98.40;;;;;;5061294;28;20193;-60
2022/02/01 13:31:36;;;;;;;1.42;1.33;;;6.40;98.30;;;;;;5059330;28;20379;-57
2022/02/01 13:34:04;;;;;;;2.05;1.33;;;6.30;98.30;;;;;;5059990;28;20192;-59
2022/02/01 13:36:32;;;;;;;2.33;2.13;;;6.30;98.30;;;;;;5062713;28;20196;-60
2022/02/01 13:39:00;;;;;;;2.50;1.90;;;6.20;98.20;;;;;;5062516;28;20198;-57
2022/02/01 13:41:28;;;;;;;2.08;1.25;;;5.90;98.50;;;;;;5059290;28;20271;-57
2022/02/01 13:43:56;;;;;;;2.65;1.35;;;6.10;99.00;;;;;;5063198;28;20796;-61
2022/02/01 13:46:31;;;;;;;3.50;1.25;;;5.20;98.50;;;;;;5063734;28;20203;-58
2022/02/01 13:49:05;;;;;;;3.88;2.92;;;5.90;98.90;;;;;;5054976;28;20206;-59
2022/02/01 13:51:31;;;;;;;3.00;1.90;;;5.90;99.20;;;;;;5064436;28;20687;-58
2022/02/01 13:54:04;;;;;;;4.30;1.63;;;5.80;98.90;;;;;;5063705;28;20247;-58
2022/02/01 13:56:35;;;;;;;1.98;1.40;;;5.90;99.20;;;;;;5058252;28;20632;-59
2022/02/01 13:59:09;;;;;;;1.90;1.20;;;6.20;99.40;;;;;;5061465;28;20547;-60
2022/02/01 14:01:44;;;;;;;3.47;1.63;;;5.70;99.60;;;;;;5061068;28;20281;-63
2022/02/01 14:04:19;;;;;;;3.47;1.55;;;5.40;99.70;;;;;;5061846;28;20631;-59
2022/02/01 14:06:51;;;;;;;5.35;1.80;;;5.50;99.90;;;;;;5063143;28;20207;-59
2022/02/01 14:28:46;;;;;;;2.70;2.03;;;5.40;99.90;;;;;;5069440;28;20300;-60
2022/02/01 14:36:25;;;;;;;4.90;1.83;;;5.20;99.90;;;;;;5056865;28;20179;-58
2022/02/01 14:46:54;;;;;;;4.10;1.95;;;5.00;99.90;;;;;;5050385;28;20330;-59
2022/02/01 14:49:23;;;;;;;3.47;1.40;;;5.00;99.90;;;;;;5044062;28;20199;-58
2022/02/01 14:51:56;;;;;;;1.77;1.55;;;4.80;99.90;;;;;;5062787;28;20205;-58
2022/02/01 14:54:30;;;;;;;2.95;1.85;;;4.50;99.90;;;;;;5065700;28;20194;-58
2022/02/01 15:03:38;;;;;;;3.33;2.20;;;5.10;99.90;;;;;;5063263;28;20189;-58
2022/02/01 15:05:24;;;;;;;2.83;2.10;;;4.30;99.90;;;;;;5073294;28;20734;-58
2022/02/01 15:13:29;;;;;;;2.20;1.70;;;4.30;99.90;;;;;;5065570;28;20301;-59
2022/02/01 15:15:55;;;;;;;3.45;2.10;;;4.10;99.90;;;;;;5065318;28;20960;-59
2022/02/01 15:18:21;;;;;;;3.33;2.17;;;4.30;99.90;;;;;;5049620;28;20232;-60
2022/02/01 15:20:47;;;;;;;2.60;1.90;;;3.70;99.90;;;;;;5065823;28;20604;-59